CheckWX is a tool to help pilots better visualize weather data.  It is not intended as a substitute for an official pre-flight weather briefing.

19:05:53 UTC

EGTE METAR
Exeter International Airport
Exeter, United Kingdom
Current

16 mins ago

EGTE 281850Z 27009KT 240V300 9999 FEW020CB 05/00 Q1003
Observed
Jan-28 @ 18:50 UTC
Wind
  • 270° at 9 KTS
Visibility
10,000+ meters
Flight Rules
VFR
Cloud Levels
  • Few at 2,000' AGL
Temperature
C / 41°F
Dewpoint
C / 32°F
Humidity
70%
Altimeter
29.62" Hg
Pressure
1002.92 hPa
Previous

46 mins ago

EGTE 281820Z 28009KT 9999 FEW020CB 05/01 Q1003
Observed
Jan-28 @ 18:20 UTC
Wind
  • 280° at 9 KTS
Visibility
10,000+ meters
Flight Rules
VFR
Cloud Levels
  • Few at 2,000' AGL
Temperature
C / 41°F
Dewpoint
C / 34°F
Humidity
76%
Altimeter
29.62" Hg
Pressure
1002.92 hPa
Previous

1 hour ago

EGTE 281750Z 27011KT 9999 VCSH SCT020CB 05/01 Q1002 RESHRA
Observed
Jan-28 @ 17:50 UTC
Wind
  • 270° at 11 KTS
Visibility
10,000+ meters
Flight Rules
VFR
Cloud Levels
  • Scattered at 2,000' AGL
Temperature
C / 41°F
Dewpoint
C / 34°F
Humidity
76%
Altimeter
29.59" Hg
Pressure
1001.92 hPa